Saturday, August 1, 2015, 9:50 AM EDT

KLKU, Louisa, Louisa County Airport/freeman Field

Location: Louisa, VA, United States Lat: 38.01
Local Time: 9:50 AM EDT (13:50 GMT) Lon: -77.97
Time Zone: US/Eastern Elev: 492 ft

Show me the last for .
Show Decoded

2015-08-01 09:35 METAR KLKU 011335Z AUTO 26004KT 10SM CLR 27/19 A2991 RMK AO2 =
2015-08-01 09:15 METAR KLKU 011315Z AUTO 24003KT 10SM CLR 26/19 A2992 RMK AO2 =
2015-08-01 08:55 METAR KLKU 011255Z AUTO 24003KT 10SM CLR 25/19 A2991 RMK AO2 =
2015-08-01 08:35 METAR KLKU 011235Z AUTO 25003KT 10SM CLR 24/18 A2992 RMK AO2 =
2015-08-01 07:55 METAR KLKU 011155Z AUTO 00000KT 10SM CLR 22/18 A2991 RMK AO2 =
2015-08-01 07:35 METAR KLKU 011135Z AUTO 00000KT 10SM CLR 21/18 A2990 RMK AO2 =
2015-08-01 07:15 METAR KLKU 011115Z AUTO 00000KT 10SM CLR 19/17 A2990 RMK AO2 =
2015-08-01 06:55 METAR KLKU 011055Z AUTO 00000KT 10SM CLR 18/17 A2990 RMK AO2 =
2015-08-01 06:35 METAR KLKU 011035Z AUTO 00000KT 10SM CLR 17/16 A2990 RMK AO2 =
2015-08-01 06:15 METAR KLKU 011015Z AUTO 22003KT 10SM CLR 18/17 A2990 RMK AO2 =
2015-08-01 05:55 METAR KLKU 010955Z AUTO 00000KT 10SM CLR 18/16 A2990 RMK AO2 =
2015-08-01 05:35 METAR KLKU 010935Z AUTO 22003KT 10SM CLR 17/16 A2990 RMK AO2 =
2015-08-01 05:15 METAR KLKU 010915Z AUTO 25003KT 10SM CLR 18/17 A2989 RMK AO2 =
2015-08-01 04:55 METAR KLKU 010855Z AUTO 00000KT 10SM CLR 19/17 A2989 RMK AO2 =
2015-08-01 04:35 METAR KLKU 010835Z AUTO 26004KT 10SM CLR 19/17 A2989 RMK AO2 =
2015-08-01 04:15 METAR KLKU 010815Z AUTO 25003KT 10SM CLR 19/17 A2990 RMK AO2 =
2015-08-01 03:55 METAR KLKU 010755Z AUTO 25003KT 10SM CLR 20/17 A2990 RMK AO2 =
2015-08-01 03:35 METAR KLKU 010735Z AUTO 25004KT 10SM CLR 20/17 A2990 RMK AO2 =
2015-08-01 03:15 METAR KLKU 010715Z AUTO 24004KT 10SM CLR 20/17 A2990 RMK AO2 =
2015-08-01 02:55 METAR KLKU 010655Z AUTO 24003KT 10SM SCT080 19/17 A2991 RMK AO2 =
2015-08-01 02:35 METAR KLKU 010635Z AUTO 25003KT 10SM CLR 18/17 A2991 RMK AO2 =
2015-08-01 02:15 METAR KLKU 010615Z AUTO 00000KT 10SM CLR 18/16 A2991 RMK AO2 =
2015-08-01 01:55 METAR KLKU 010555Z AUTO 00000KT 10SM CLR 18/17 A2991 RMK AO2 =
2015-08-01 01:35 METAR KLKU 010535Z AUTO 00000KT 10SM CLR 21/17 A2992 RMK AO2 =
2015-08-01 01:15 METAR KLKU 010515Z AUTO 26004KT 10SM CLR 22/17 A2992 RMK AO2 =
2015-08-01 00:55 METAR KLKU 010455Z AUTO 00000KT 10SM CLR 21/17 A2992 RMK AO2 =
2015-08-01 00:35 METAR KLKU 010435Z AUTO 00000KT 10SM CLR 19/17 A2993 RMK AO2 =
2015-08-01 00:15 METAR KLKU 010415Z AUTO 00000KT 10SM CLR 20/18 A2993 RMK AO2 =
2015-07-31 23:55 METAR KLKU 010355Z AUTO 00000KT 10SM CLR 21/18 A2993 RMK AO2 =
2015-07-31 23:35 METAR KLKU 010335Z AUTO 00000KT 10SM CLR 23/18 A2993 RMK AO2 =
2015-07-31 23:15 METAR KLKU 010315Z AUTO 20003KT 10SM CLR 23/18 A2993 RMK AO2 =
2015-07-31 22:55 METAR KLKU 010255Z AUTO 00000KT 10SM CLR 23/18 A2993 RMK AO2 =
2015-07-31 22:35 METAR KLKU 010235Z AUTO 00000KT 10SM CLR 22/18 A2993 RMK AO2 =
2015-07-31 22:15 METAR KLKU 010215Z AUTO 00000KT 10SM CLR 19/17 A2993 RMK AO2 =
2015-07-31 21:55 METAR KLKU 010155Z AUTO 00000KT 10SM CLR 21/17 A2992 RMK AO2 =
2015-07-31 21:35 METAR KLKU 010135Z AUTO 00000KT 10SM CLR 21/18 A2992 RMK AO2 =
2015-07-31 21:15 METAR KLKU 010115Z AUTO 19003KT 10SM CLR 22/18 A2991 RMK AO2 =
2015-07-31 20:55 METAR KLKU 010055Z AUTO 18003KT 10SM CLR 22/18 A2991 RMK AO2 =
2015-07-31 20:35 METAR KLKU 010035Z AUTO 18003KT 10SM CLR 23/19 A2990 RMK AO2 =
2015-07-31 20:15 METAR KLKU 010015Z AUTO 00000KT 10SM CLR 24/19 A2989 RMK AO2 =
2015-07-31 19:55 METAR KLKU 312355Z AUTO 00000KT 10SM CLR 26/18 A2989 RMK AO2 =
2015-07-31 19:35 METAR KLKU 312335Z AUTO 00000KT 10SM CLR 27/19 A2989 RMK AO2 =
2015-07-31 19:15 METAR KLKU 312315Z AUTO 00000KT 10SM CLR 29/17 A2988 RMK AO2 =
2015-07-31 18:55 METAR KLKU 312255Z AUTO 00000KT 10SM CLR 31/16 A2988 RMK AO2 =
2015-07-31 18:35 METAR KLKU 312235Z AUTO 27003KT 10SM CLR 31/16 A2988 RMK AO2 =
2015-07-31 18:15 METAR KLKU 312215Z AUTO 31005KT 10SM CLR 31/15 A2989 RMK AO2 =
2015-07-31 17:55 METAR KLKU 312155Z AUTO 26003KT 10SM CLR 31/15 A2989 RMK AO2 =
2015-07-31 17:35 METAR KLKU 312135Z AUTO 27006KT 10SM CLR 32/16 A2990 RMK AO2 =
2015-07-31 17:15 METAR KLKU 312115Z AUTO 27006KT 10SM CLR 32/16 A2990 RMK AO2 =
2015-07-31 16:55 METAR KLKU 312055Z AUTO 27007KT 240V300 10SM CLR 32/16 A2990 RMK AO2 =
2015-07-31 16:35 METAR KLKU 312035Z AUTO 30003KT 10SM CLR 32/14 A2991 RMK AO2 =
2015-07-31 16:15 METAR KLKU 312015Z AUTO 33006KT 10SM CLR 32/14 A2991 RMK AO2 =
2015-07-31 15:55 METAR KLKU 311955Z AUTO 27009KT 240V300 10SM CLR 32/15 A2991 RMK AO2 =
2015-07-31 15:35 METAR KLKU 311935Z AUTO 00000KT 10SM CLR 32/14 A2992 RMK AO2 =
2015-07-31 14:55 METAR KLKU 311855Z AUTO 35007KT 10SM CLR 31/14 A2994 RMK AO2 =
2015-07-31 14:35 METAR KLKU 311835Z AUTO 05003KT 10SM CLR 31/15 A2995 RMK AO2 =
2015-07-31 14:15 METAR KLKU 311815Z AUTO 30004KT 10SM CLR 32/14 A2995 RMK AO2 =
2015-07-31 13:55 METAR KLKU 311755Z AUTO 34004KT 10SM SCT095 31/14 A2996 RMK AO2 =
2015-07-31 13:35 METAR KLKU 311735Z AUTO 00000KT 10SM CLR 31/14 A2996 RMK AO2 =
2015-07-31 13:15 METAR KLKU 311715Z AUTO 33005KT 10SM CLR 31/14 A2996 RMK AO2 =
2015-07-31 12:55 METAR KLKU 311655Z AUTO 36005KT 10SM SCT090 30/14 A2996 RMK AO2 =
2015-07-31 12:35 METAR KLKU 311635Z AUTO 33007KT 10SM CLR 31/14 A2997 RMK AO2 =
2015-07-31 12:15 METAR KLKU 311615Z AUTO 30005KT 10SM CLR 30/14 A2997 RMK AO2 =
2015-07-31 11:55 METAR KLKU 311555Z AUTO 36007KT 10SM CLR 30/13 A2998 RMK AO2 =
2015-07-31 11:35 METAR KLKU 311535Z AUTO 33006KT 10SM CLR 30/14 A2998 RMK AO2 =
2015-07-31 11:15 METAR KLKU 311515Z AUTO 34009KT 290V350 10SM CLR 30/14 A2998 RMK AO2 =
2015-07-31 10:35 METAR KLKU 311435Z AUTO 33006KT 10SM CLR 29/16 A2998 RMK AO2 =
2015-07-31 10:15 METAR KLKU 311415Z AUTO 35007KT 10SM CLR 28/16 A2998 RMK AO2 =
2015-07-31 09:55 METAR KLKU 311355Z AUTO 33007KT 10SM CLR 28/17 A2998 RMK AO2 =

Support USWX by starting your Amazon purchase here.